SiktMolnbas
>≥ 10km≥ 10km ≥ 2000ft≥ 2000ft
< 10km< 10km < 2000ft< 2000ft
< 8km< 8km < 1500ft< 1500ft
< 5km< 5km < 1000ft< 1000ft
< 3km< 3km < 500ft< 500ft

Nytt 18 jan 2017:

Nytt 17 jan 2017:

ESNQ (04:20 UTC)

Kiruna flygplats

METAR

ESNQ 220420Z AUTO VRB02KT 9999 NCD M02/M05 Q1018=

TAF

ESNQ 220430Z 2205/2208 35008KT CAVOK=

ESNG (04:20 UTC)

Gällivare (Kavaheden), Lapland Airport

METAR

ESNG 220420Z AUTO 31006KT 9999 NCD M01/M05 Q1018=

TAF

Ingen TAF hittades.

ESPA (04:20 UTC)

Luleå Airport (Kallax)

METAR

ESPA 220420Z AUTO 34009KT 9999 NCD 01/M02 Q1018=

TAF

Ingen TAF hittades.

ESNL (04:20 UTC)

Lycksele flygplats

METAR

ESNL 220420Z AUTO 24002KT 9999 NCD M05/M05 Q1020=

TAF

Ingen TAF hittades.

ESNU (04:20 UTC)

Umeå City Airport

METAR

ESNU 220420Z AUTO 33007KT 9999 NCD 01/M02 Q1018=

TAF

ESNU 220230Z 2203/2212 34007KT CAVOK=

ESNO (04:20 UTC)

Örnsköldsvik flygplats

METAR

ESNO 220420Z AUTO 34007KT 310V010 9999 NCD 02/M03 Q1018=

TAF

Ingen TAF hittades.

ESNK (04:20 UTC)

Kramfors-Sollefteå flygplats

METAR

ESNK 220420Z AUTO 32005KT 9999 BKN130/// 04/01 Q1019=

TAF

Ingen TAF hittades.

ESNN (04:20 UTC)

Sundsvall-Härnösands flygplats (Midlanda)

METAR

ESNN 220420Z AUTO 30005KT 9999 BKN064/// OVC088/// 05/03 Q1018=

TAF

Ingen TAF hittades.

ESNZ (04:20 UTC)

Åre Östersund Airport (Frösön)

METAR

RA

ESNZ 220420Z AUTO 07003KT 9999 -RA FEW005/// 02/01 Q1018=

TAF

Ingen TAF hittades.

ESNS (04:20 UTC)

Skellefteå flygplats

METAR

ESNS 220420Z AUTO 33006KT 9999 NCD 01/M02 Q1019=

TAF

Ingen TAF hittades.

ESGT (04:20 UTC)

Trollhättan-Vänersborgs flygplats (Malöga flygplats)

METAR

ESGT 220420Z AUTO 24003KT 210V290 9999 OVC007/// 13/12 Q1016=

TAF

Ingen TAF hittades.

ESGG (04:20 UTC)

Göteborg-Landvetter flygplats

METAR

ESGG 220420Z 21005KT 1100 R03/P1500N R21/P1500N VV002 11/11 Q1016=

TAF

Ingen TAF hittades.

ESMT (04:20 UTC)

Halmstads flygplats

METAR

FG

ESMT 220420Z AUTO VRB01KT 0150 R01/0700N R19/0650N FG VV001 10/10 Q1016=

TAF

Ingen TAF hittades.

ESTA (04:20 UTC)

Ängelholm-Helsingborg flygplats

METAR

FG

ESTA 220420Z AUTO 14005KT 0150 R14/0650N R32/0800N FG VV001 08/08 Q1016=

TAF

Ingen TAF hittades.

ESTL (04:20 UTC)

Ljungbyheds flygplats

METAR

FG

ESTL 220420Z AUTO 07003KT 0300 R29L/0900N FG VV000 05/05 Q1016=

TAF

Ingen TAF hittades.

ESMS (04:20 UTC)

Malmö Airport

METAR

FG

ESMS 220420Z VRB02KT 0050 R17/0350N R35/0225N FG BKN001 05/05 Q1017=

TAF

FG

ESMS 212313Z 2200/2224 VRB02KT 0100 FG VV001 TEMPO 2200/2208 3000 BCFG SCT002 BECMG 2208/2210 9999 NSW BKN005 BECMG 2210/2212 SCT015 TEMPO 2217/2224 4000 BR BECMG 2219/2221 10014KT BKN012=

ESMK (04:20 UTC)

Kristianstad Airport

METAR

ESMK 220420Z AUTO 00000KT 0250 R01/0900U R19/1000U // SCT001/// 04/04 Q1016=

TAF

Ingen TAF hittades.

ESDF (04:20 UTC)

Ronneby flygplats

METAR

ESDF 220420Z AUTO 02003KT 9999 NCD 04/04 Q1016=

TAF

Ingen TAF hittades.

ESMQ (04:20 UTC)

Kalmar Airport

METAR

FG

ESMQ 220420Z AUTO 24003KT 5000 BCFG NCD 05/05 Q1015=

TAF

Ingen TAF hittades.

ESMX (04:20 UTC)

Växjö, Smaland Airport

METAR

FG

ESMX 220420Z AUTO VRB01KT 0300 R01/P2000D R19/0450N FG NCD 05/05 Q1016=

TAF

FG

ESMX AMD 220401Z 2204/2212 VRB02KT CAVOK PROB40 2204/2208 0200 FG VV002 PROB40 2208/2210 BKN005=

ESGJ (04:20 UTC)

Jönköping Airport

METAR

FG

ESGJ 220420Z AUTO VRB02KT 0500 R01/P1500N R19/P1500D FG OVC001/// 07/06 Q1015=

TAF

Ingen TAF hittades.

ESSA (04:20 UTC)

Stockholm-Arlanda flygplats

METAR

ESSA 220420Z 02005KT CAVOK 06/06 Q1015 NOSIG=

TAF

BR

ESSA 212330Z 2200/2224 29005KT CAVOK TEMPO 2201/2206 2000 BR BKN008 BECMG 2206/2208 02010KT TEMPO 2206/2209 BKN010=

ESSB (04:20 UTC)

Stockholm-Bromma flygplats

METAR

ESSB 220420Z AUTO 02003KT 9999 NCD 08/08 Q1015=

TAF

Ingen TAF hittades.

ESKN (04:20 UTC)

Stockholm-Skavsta flygplats

METAR

FG

ESKN 220420Z 34003KT 9999 MIFG NSC 06/05 Q1014=

TAF

BR

ESKN 212330Z 2200/2224 30005KT CAVOK PROB40 2202/2205 3000 BR BECMG 2209/2211 05010KT PROB40 2211/2215 BKN014=

ESSP (04:20 UTC)

Norrköping flygplats

METAR

FG

ESSP 220420Z 00000KT 9999 BCFG NSC 06/06 Q1015=

TAF

BR

ESSP 220230Z 2203/2207 VRB02KT CAVOK PROB40 2204/2207 4000 BR=

ESSL (04:20 UTC)

Linköping - SAAB Flygplats

METAR

ESSL 220420Z AUTO 22002KT 9999 NCD 09/08 Q1015=

TAF

ESSL 220330Z 2204/2206 VRB02KT CAVOK=

ESSV (04:20 UTC)

Visby flygplats

METAR

ESSV 220420Z AUTO 27003KT 6000 NCD 06/06 Q1014=

TAF

ESSV 220400Z 2205/2212 22003KT CAVOK BECMG 2210/2212 07010KT=

ESOW (04:20 UTC)

Stockholm-Västerås flygplats

METAR

ESOW 220420Z AUTO 01008KT 9999 NCD 07/06 Q1016=

TAF

Ingen TAF hittades.

ESOE (04:20 UTC)

Örebro flygplats

METAR

ESOE 220420Z AUTO 27003KT 0450 R01///// R19///// NCD 11/09 Q1015=

TAF

Ingen TAF hittades.

ESOK (04:20 UTC)

Karlstad Airport

METAR

ESOK 220420Z AUTO 05003KT 6000 NCD 06/05 Q1015=

TAF

Ingen TAF hittades.

ESSD (04:20 UTC)

Borlänge, Dala Airport

METAR

ESSD 220420Z AUTO 11003KT 9999 SCT003/// OVC006/// 08/08 Q1016=

TAF

Ingen TAF hittades.

ESGR (04:20 UTC)

Skövde flygplats

METAR

FG

ESGR 220420Z AUTO 00000KT 4200 BCFG OVC004/// 05/05 Q1015 RESHUP=

TAF

Ingen TAF hittades.

ESIB (04:20 UTC)

Såtenäs

METAR

ESIB 220420Z AUTO 26005KT 9999 OVC007/// 13/13 Q1015=

TAF

Ingen TAF hittades.

ESNV (04:20 UTC)

Vilhelmina flygplats

METAR

ESNV 220420Z AUTO 00000KT 9999 NCD ///// Q1019=

TAF

Ingen TAF hittades.

ESST (04:20 UTC)

Torsby flygplats (Fryklanda)

METAR

FG

ESST 220420Z AUTO 33003KT 0150 R16/P2000N R34/0650U FG NCD 04/04 Q1016 REUP=

TAF

Ingen TAF hittades.

ESUT (04:20 UTC)

Hemavans flygplats

METAR

ESUT 220420Z AUTO 16003KT 9999 NCD M06/M06 Q1019=

TAF

Ingen TAF hittades.

ESNX (04:20 UTC)

Arvidsjaur flygplats

METAR

ESNX 220420Z AUTO 30005KT 9999 NCD M01/M03 Q1019=

TAF

Ingen TAF hittades.

ESIA (04:20 UTC)

Karlsborg

METAR

BR

ESIA 220420Z AUTO 32003KT 270V010 7000 BR OVC002/// 10/09 Q1015=

TAF

Ingen TAF hittades.

ESUP (04:20 UTC)

Pajala

METAR

ESUP 220420Z AUTO 28004KT //// R11///// NCD M03/M04 Q1018=

TAF

Ingen TAF hittades.

ESPE (04:20 UTC)

Vidsel

METAR

ESPE 220420Z AUTO 33006KT 9999 NCD M03/M04 Q1019=

TAF

Ingen TAF hittades.

ESCM (04:20 UTC)

Uppsala

METAR

ESCM 220420Z AUTO 34005KT 9999 FEW016/// 07/07 Q1016=

TAF

Ingen TAF hittades.

ESKM (04:20 UTC)

Mora/Siljan

METAR

ESKM 220420Z AUTO 00000KT 9999 NCD 02/02 Q1016=

TAF

Ingen TAF hittades.

EKRN (03:50 UTC)

Bornholm Airport

METAR

EKRN 220350Z AUTO 26004KT 6000 BKN006/// 12/12 Q1017=

TAF

Ingen TAF hittades.

EFKT (04:20 UTC)

Kittilä Airport

METAR

EFKT 220420Z AUTO 33007KT CAVOK M00/M02 Q1016=

TAF

EFKT AMD 220253Z 2203/2207 30005KT CAVOK=

EFRO (04:20 UTC)

Rovaniemi Airport

METAR

EFRO 220420Z AUTO 01012KT 9999 BKN003 BKN005 00/M01 Q1015=

TAF

TCU

EFRO AMD 220402Z 2204/2303 34010KT 9999 BKN005 TEMPO 2204/2206 5000 OVC003 BECMG 2206/2208 SCT020 TEMPO 2213/2216 SCT025TCU=

EFKE (04:20 UTC)

Kemi-Tornio Airport

METAR

EFKE 220420Z AUTO 36007KT 9999 FEW036 00/M01 Q1017=

TAF

Ingen TAF hittades.

EFKS (04:20 UTC)

Kuusamo Airport

METAR

EFKS 220420Z AUTO 33008KT CAVOK M00/M02 Q1012=

TAF

Ingen TAF hittades.

EFOU (04:20 UTC)

Oulu Airport

METAR

EFOU 220420Z AUTO 01006KT CAVOK 01/M00 Q1015=

TAF

EFOU 220231Z 2203/2303 35006KT 9999 FEW007 PROB30 2203/2206 BKN007=

EFKI (04:20 UTC)

Kajaani Airport

METAR

EFKI 220420Z AUTO 36005KT 9999 SCT004 BKN006 01/M00 Q1012=

TAF

EFKI 220231Z 2203/2212 35007KT 9999 FEW007 TEMPO 2203/2208 BKN007=

EFKK (04:20 UTC)

Kokkola-Pietarsaari/Kruunupyy Airport

METAR

SHRA

EFKK 220420Z AUTO VRB02KT 9999 VCSH SCT024 SCT065 //////CB 02/02 Q1015=

TAF

Ingen TAF hittades.

EFVA (04:20 UTC)

Vaasa Airport

METAR

SHRA

EFVA 220420Z AUTO VRB01KT 9999 VCSH FEW059 //////CB 01/01 Q1016=

TAF

SHRACB

EFVA 220231Z 2203/2303 33005KT 9999 SCT030 TEMPO 2203/2205 1000 BCFG PROB40 2203/2205 FEW025CB TEMPO 2206/2212 SHRA SCT025CB=

EFKU (04:20 UTC)

Kuopio Airport

METAR

EFKU 220420Z AUTO 31010KT CAVOK 00/00 Q1012=

TAF

EFKU 220231Z 2203/2303 32010KT CAVOK PROB30 2203/2204 BKN004 TEMPO 2206/2209 BKN010=

EFJY (04:20 UTC)

Jyväskylä Airport

METAR

EFJY 220420Z AUTO 29006KT CAVOK M01/M02 Q1013=

TAF

EFJY 220231Z 2203/2303 34006KT CAVOK TEMPO 2206/2208 BKN010=

EFTP (04:20 UTC)

Tampere-Pirkkala Airport

METAR

EFTP 220420Z AUTO 33006KT CAVOK 02/01 Q1014=

TAF

EFTP 220231Z 2203/2303 33006KT CAVOK=

EFPO (04:20 UTC)

Pori Airport

METAR

EFPO 220420Z AUTO VRB02KT CAVOK 03/01 Q1015=

TAF

Ingen TAF hittades.

EFTU (04:20 UTC)

Turku Airport

METAR

EFTU 220420Z AUTO VRB02KT CAVOK 04/03 Q1015=

TAF

EFTU 220231Z 2203/2303 33006KT CAVOK=

EFHK (04:20 UTC)

Helsinki-Vantaa Airport

METAR

EFHK 220420Z 33007KT CAVOK 02/02 Q1013 NOSIG=

TAF

EFHK 220231Z 2203/2303 33008KT CAVOK=

EFMA (04:20 UTC)

Mariehamn Airport

METAR

EFMA 220420Z AUTO 04004KT 9999 OVC022 09/07 Q1015=

TAF

RA

EFMA 220231Z 2203/2212 04005KT 9999 -RA FEW009 BKN030 TEMPO 2203/2206 7000 -RA BKN009=

EKSB (03:50 UTC)

Sønderborg Airport

METAR

SHRABR

EKSB 220350Z AUTO 15005KT //// -SHRA BR NCD 12/12 Q1015=

TAF

Ingen TAF hittades.

EKSP (04:20 UTC)

Vojens Airport

METAR

FG

EKSP 220420Z 05004KT 0100 R10/M0300N R28/M0300N FG SKC 08/08 Q1015=

TAF

FG

EKSP 220228Z 2203/2303 10004KT 0100 FG FEW200 TEMPO 2203/2206 2000 BCFG BKN002 BECMG 2206/2208 9999 NSW BECMG 2208/2211 10014KT TEMPO 2300/2303 4000 BR BKN006=

EKEB (03:50 UTC)

Esbjerg Airport

METAR

BR

EKEB 220350Z AUTO 10004KT 2500 BR ///////// 09/09 Q1015=

TAF

Ingen TAF hittades.

EKYT (04:09 UTC)

Aalborg Airport

METAR

FG

EKYT 220409Z AUTO 06002KT 0150 R08L/1200U R26R/0300D FG VV001 05/05 Q1015=

TAF

FG

EKYT 220231Z 2203/2303 VRB05KT 0300 FG VV001 TEMPO 2203/2208 3000 BR SCT003 BECMG 2208/2210 11006KT 9999 NSW FEW012 BECMG 2215/2218 11014KT TEMPO 2216/2303 2500 BR BKN003=

EKKA (04:20 UTC)

Karup Airport

METAR

EKKA 220420Z AUTO 10004KT 9999 NCD 06/06 Q1015=

TAF

FG

EKKA 220228Z 2203/2303 VRB03KT 0100 FG VV001 TEMPO 2203/2208 1500 BCFG SCT002 BECMG 2208/2210 12008KT 9999 NSW FEW200 TEMPO 2218/2303 4000 BR BKN004=

EKBI (03:50 UTC)

Billund Airport

METAR

FG

EKBI 220350Z 12003KT 0400 R09/P1500U R27/P1500D BCFG SKC 10/10 Q1015=

TAF

FG

EKBI 212322Z 2200/2224 VRB02KT 0100 FG VV001 TEMPO 2200/2208 3000 BCFG SCT002 BECMG 2208/2210 9999 NSW BKN005 BECMG 2210/2212 12010KT SCT015 PROB40 2219/2224 4000 BR BKN004=

EKVD (03:50 UTC)

Kolding Airport

METAR

EKVD 220350Z AUTO 10003KT //// ///////// 10/10 Q1015=

TAF

Ingen TAF hittades.

EKCH (03:50 UTC)

Copenhagen Airport, Kastrup

METAR

FG

EKCH 220350Z 00000KT 0400 R22L/1000U R04L/0700U R12/0450U BCFG NSC 08/08 Q1017 TEMPO 1200=

TAF

FG

EKCH 212322Z 2200/2224 VRB02KT 0200 FG VV001 TEMPO 2200/2208 3000 BCFG SCT002 BECMG 2208/2210 9999 NSW BKN005 BECMG 2210/2212 SCT015 BECMG 2217/2219 10015KT=

EKRK (03:50 UTC)

Copenhagen Airport, Roskilde

METAR

FG

EKRK 220350Z AUTO 00000KT 0050 R11/0375D R29/0300N FG VV002 05/05 Q1016=

TAF

FG

EKRK 220223Z 2203/2212 VRB02KT 0100 FG VV001 TEMPO 2203/2210 3000 BCFG SCT002 BECMG 2210/2212 9999 NSW SCT015=

ENRY (04:20 UTC)

Moss flygplats, Rygge

METAR

FG

ENRY 220420Z AUTO 09002KT 0600NDV R12/P2000N R30/P2000N BCFG OVC001/// 11/11 Q1016=

TAF

FG

ENRY 212300Z 2200/2224 VRB05KT 0100 FG VV001 PROB40 2200/2207 2000 BCFG BKN002 BECMG 2207/2209 9999 FEW005 BECMG 2212/2214 07010KT=

ENGM (04:20 UTC)

Oslo flygplats, Gardermoen

METAR

FG

ENGM 220420Z 32001KT 9999 0550E R19R/P2000N R01R/P2000N MIFG NSC 05/04 Q1015 TEMPO 2000 BCFG BKN002=

TAF

FG

ENGM 212300Z 2200/2224 VRB05KT CAVOK PROB30 2202/2206 0300 FG VV001 BECMG 2212/2214 07010KT=

ENTO (04:20 UTC)

Sandefjord flygplats, Torp

METAR

FG

ENTO 220420Z 30002KT 0300 R18/1200N R36/1600U FG VV002 10/10 Q1015 TEMPO 0500 FG=

TAF

FG

ENTO 212300Z 2200/2224 03008KT 9999 FEW003 PROB40 2200/2208 0300 FG VV001=

ENCN (04:20 UTC)

Kristiansand flygplats, Kjevik

METAR

ENCN 220420Z 05005KT CAVOK 07/07 Q1015=

TAF

ENCN 220200Z 2203/2212 05010KT CAVOK=

ENZV (04:20 UTC)

Stavanger-Sola flygplats

METAR

ENZV 220420Z VRB02KT 9999 0900SW PRFG SCT003 08/08 Q1014=

TAF

FG

ENZV 212300Z 2200/2224 VRB05KT 9999 FEW005 PROB40 2200/2209 0300 FG VV001=

ENHD (04:20 UTC)

Haugesund flygplats, Karmøy

METAR

FG

ENHD 220420Z AUTO 17002KT 0450 R13/P2000N R31/1400D BCFG VV001 08/07 Q1014=

TAF

FG

ENHD 220200Z 2203/2212 13008KT 9999 FEW005 PROB40 TEMPO 2203/2209 0300 FG VV001=

ENBR (04:20 UTC)

Bergen flygplats, Flesland

METAR

ENBR 220420Z 00000KT CAVOK 08/07 Q1014 RMK WIND 1200FT 10002KT=

TAF

FG

ENBR 212300Z 2200/2224 VRB05KT CAVOK PROB30 2200/2208 0300 FG VV001 PROB30 2222/2224 0300 FG VV001=

ENML (03:50 UTC)

Molde flygplats, Årø

METAR

ENML 220350Z AUTO 03004KT 9999NDV NCD 07/07 Q1016=

TAF

Ingen TAF hittades.

ENKB (03:50 UTC)

Kristiansund flygplats, Kvernberget

METAR

ENKB 220350Z AUTO VRB02KT 9999 OVC014/// 11/09 Q1016 RMK WIND 745FT 16004KT=

TAF

Ingen TAF hittades.

ENRO (04:20 UTC)

Røros flygplats

METAR

ENRO 220420Z AUTO 22014KT 9999NDV OVC013/// 02/02 Q1016=

TAF

Ingen TAF hittades.

ENVA (04:20 UTC)

Trondheim flygplats, Værnes

METAR

BR

ENVA 220420Z 28004KT 4800 BR VV006 11/10 Q1017 RMK WIND 670FT 28004KT=

TAF

DZBR

ENVA AMD 220317Z 2203/2224 27005KT 9999 FEW010 BKN020 TEMPO 2203/2210 4000 -DZ BR BKN008 BECMG 2208/2211 09010KT=

ENOL (03:50 UTC)

Ørland flygplats

METAR

ENOL 220350Z 00000KT 9999 FEW008 SCT012 BKN028 10/10 Q1017=

TAF

BR

ENOL AMD 212300Z 2200/2224 VRB07KT 9999 FEW008 BKN018 PROB30 TEMPO 2200/2207 2500 BR BKN004 BECMG 2204/2207 12012KT=

ENBN (03:50 UTC)

Brønnøysund flygplats, Brønnøy

METAR

ENBN 220350Z AUTO 05006KT 9999NDV NCD 04/02 Q1019=

TAF

Ingen TAF hittades.

ENBO (04:20 UTC)

Bodö flygplats

METAR

ENBO 220420Z 09007KT CAVOK M00/M02 Q1022=

TAF

ENBO 212300Z 2200/2224 09010KT 9999 FEW040 PROB30 2200/2206 1200 PRFG=

ENAN (04:20 UTC)

Andøya flygplats

METAR

ENAN 220420Z AUTO 35011KT 9999 FEW023/// 04/01 Q1022=

TAF

SHRATCU

ENAN 212300Z 2200/2224 36008KT 9999 -SHRA FEW015TCU BKN030=

ENDU (04:20 UTC)

Bardufoss flygplats

METAR

ENDU 220420Z AUTO 00000KT 9999 FEW028/// BKN051/// OVC070/// 01/00 Q1021 RMK WIND 1100FT 27006KT WIND 2200FT 28011KT=

TAF

SHRASN

ENDU 212300Z 2200/2224 VRB08KT 9999 -SHRA FEW001 BKN030 PROB40 2200/2206 4000 SHRASN BKN014=

ENTC (04:20 UTC)

Tromsø flygplats

METAR

ENTC 220420Z 24003KT 200V280 9999 BKN025 03/02 Q1021 RMK WIND 2600FT 35019KT=

TAF

SHRASNCB

ENTC 212300Z 2200/2224 21008KT 9999 -SHRA FEW005 BKN030 PROB40 2200/2206 4000 SHRASN FEW010CB BKN012=

ENAT (03:50 UTC)

Alta flygplats

METAR

ENAT 220350Z AUTO 35012KT 9999 FEW031/// BKN042/// OVC057/// 05/01 Q1018 RMK WIND 700FT 34011KT=

TAF

Ingen TAF hittades.

ENNA (03:50 UTC)

Lakselv flygplats

METAR

ENNA 220350Z AUTO 32015KT 9999 FEW021/// OVC051/// 04/00 Q1017 RMK WIND 1800FT 30019KT=

TAF

SHRATCU

ENNA 212300Z 2200/2224 32008KT 9999 -SHRA FEW010TCU BKN030 TEMPO 2200/2224 31015G25KT=

ENHF (03:50 UTC)

Hammerfest flygplats

METAR

ENHF 220350Z AUTO 02007KT 330V060 9999 SCT022/// BKN070/// 03/M00 Q1017 RERA RMK WIND 1254FT 35019KT=

TAF

Ingen TAF hittades.

ENKR (03:50 UTC)

Kirkenes Airport, Høybuktmoen

METAR

ENKR 220350Z AUTO 29006KT 9999 BKN014/// OVC029/// 02/M00 Q1013 RMK WIND 731FT 32011KT=

TAF

SHRASN

ENKR 220200Z 2203/2212 32009KT 9999 SCT030 PROB40 2203/2212 4000 -SHRASN VV012=

ENSB (04:20 UTC)

Svalbard Airport, Longyear

METAR

ENSB 220420Z 29007KT 9999 SCT027 M00/M04 Q1018 RMK WIND 1400FT 28003KT=

TAF

ENSB 212300Z 2200/2224 27008KT 9999 SCT030=